Time,TemperatureF,DewpointF,PressureIn,WindDirection,WindDirectionDegrees,WindSpeedMPH,WindSpeedGustMPH,Humidity,HourlyPrecipIn,Conditions,Clouds,dailyrainin,SoftwareType,DateUTC
2013-06-01 06:59:00,46.0,41.1,29.81,SSW,203,0.0,0.0,83,0.00,,,0.00,WUHU216HW,2013-06-01 14:59:00,
2013-06-01 07:00:00,46.0,41.1,29.81,SSW,203,0.0,0.0,83,0.00,,,0.00,WUHU216HW,2013-06-01 15:00:00,
2013-06-01 07:05:00,46.0,41.1,29.80,SSW,203,0.0,0.0,83,0.00,,,0.00,WUHU216HW,2013-06-01 15:05:00,
2013-06-01 07:10:00,46.0,41.1,29.80,SSW,203,0.6,0.6,83,0.00,,,0.00,WUHU216HW,2013-06-01 15:10:00,
2013-06-01 07:15:00,46.2,41.3,29.80,SSW,203,0.0,1.3,83,0.00,,,0.00,WUHU216HW,2013-06-01 15:15:00,
2013-06-01 07:20:00,46.4,41.5,29.81,SSW,203,0.0,1.3,83,0.00,,,0.00,WUHU216HW,2013-06-01 15:20:00,
2013-06-01 07:25:00,46.5,41.7,29.81,West,270,0.0,0.0,83,0.00,,,0.00,WUHU216HW,2013-06-01 15:25:00,
2013-06-01 07:30:00,46.9,42.0,29.81,WSW,248,0.0,0.0,83,0.00,,,0.00,WUHU216HW,2013-06-01 15:30:00,
2013-06-01 07:35:00,47.1,42.2,29.81,West,270,0.0,0.0,83,0.00,,,0.00,WUHU216HW,2013-06-01 15:35:00,
2013-06-01 07:40:00,47.3,42.3,29.81,West,270,1.7,1.7,83,0.00,,,0.00,WUHU216HW,2013-06-01 15:40:00,
2013-06-01 07:45:00,47.4,42.2,29.80,West,270,0.0,1.7,82,0.00,,,0.00,WUHU216HW,2013-06-01 15:45:00,
2013-06-01 07:50:00,47.4,42.2,29.80,West,270,0.0,1.7,82,0.00,,,0.00,WUHU216HW,2013-06-01 15:50:00,
2013-06-01 07:55:00,47.4,42.4,29.80,SW,225,0.0,0.0,82,0.00,,,0.00,WUHU216HW,2013-06-01 15:55:00,
2013-06-01 08:00:00,47.4,41.9,29.80,WNW,293,0.0,2.0,81,0.00,,,0.00,WUHU216HW,2013-06-01 16:00:00,
2013-06-01 08:05:00,47.4,41.9,29.80,WNW,293,0.0,2.0,81,0.00,,,0.00,WUHU216HW,2013-06-01 16:05:00,
2013-06-01 08:10:00,47.6,42.0,29.80,WNW,293,0.0,0.0,81,0.00,,,0.00,WUHU216HW,2013-06-01 16:10:00,
2013-06-01 08:15:00,47.8,42.2,29.80,WSW,248,0.0,0.0,81,0.00,,,0.00,WUHU216HW,2013-06-01 16:15:00,
2013-06-01 08:20:00,47.6,42.0,29.80,South,180,0.0,0.0,81,0.00,,,0.00,WUHU216HW,2013-06-01 16:20:00,
2013-06-01 08:25:00,47.4,41.9,29.80,South,180,1.7,1.7,81,0.00,,,0.00,WUHU216HW,2013-06-01 16:25:00,
2013-06-01 08:30:00,47.4,41.9,29.80,South,180,0.0,1.7,81,0.00,,,0.00,WUHU216HW,2013-06-01 16:30:00,
2013-06-01 08:35:00,47.6,42.0,29.80,South,180,0.0,1.7,81,0.00,,,0.00,WUHU216HW,2013-06-01 16:35:00,
2013-06-01 08:40:00,47.8,42.2,29.80,South,180,0.0,0.0,81,0.00,,,0.00,WUHU216HW,2013-06-01 16:40:00,
2013-06-01 08:45:00,48.0,42.4,29.80,SW,225,0.0,0.0,81,0.00,,,0.00,WUHU216HW,2013-06-01 16:45:00,
2013-06-01 08:50:00,48.0,42.4,29.81,South,180,0.0,0.0,81,0.00,,,0.00,WUHU216HW,2013-06-01 16:50:00,
2013-06-01 08:55:00,48.0,42.4,29.81,SSW,203,0.0,3.1,81,0.00,,,0.00,WUHU216HW,2013-06-01 16:55:00,
2013-06-01 09:00:00,48.2,42.5,29.81,SSW,203,0.0,3.1,81,0.00,,,0.00,WUHU216HW,2013-06-01 17:00:00,
2013-06-01 09:05:00,48.3,42.7,29.81,WNW,293,0.0,0.0,81,0.00,,,0.00,WUHU216HW,2013-06-01 17:05:00,
2013-06-01 09:10:00,48.7,43.1,29.81,WNW,293,4.9,4.9,81,0.00,,,0.00,WUHU216HW,2013-06-01 17:10:00,
2013-06-01 09:15:00,48.9,42.9,29.81,WNW,293,1.7,4.9,80,0.00,,,0.00,WUHU216HW,2013-06-01 17:15:00,
2013-06-01 09:20:00,49.1,43.1,29.81,WNW,293,0.0,4.9,80,0.00,,,0.00,WUHU216HW,2013-06-01 17:20:00,
2013-06-01 09:25:00,49.2,43.3,29.81,WNW,293,0.4,1.7,80,0.00,,,0.00,WUHU216HW,2013-06-01 17:25:00,
2013-06-01 09:30:00,49.2,43.3,29.81,WNW,293,0.0,0.4,80,0.00,,,0.00,WUHU216HW,2013-06-01 17:30:00,
2013-06-01 09:35:00,49.6,43.3,29.81,WNW,293,0.0,0.4,79,0.00,,,0.00,WUHU216HW,2013-06-01 17:35:00,
2013-06-01 09:40:00,49.6,43.3,29.81,WNW,293,0.0,1.1,79,0.00,,,0.00,WUHU216HW,2013-06-01 17:40:00,
2013-06-01 09:45:00,49.8,43.5,29.80,West,270,0.0,1.1,79,0.00,,,0.00,WUHU216HW,2013-06-01 17:45:00,
2013-06-01 09:50:00,50.0,43.3,29.81,WNW,293,2.0,2.9,78,0.00,,,0.00,WUHU216HW,2013-06-01 17:50:00,
2013-06-01 09:55:00,50.1,43.5,29.81,NW,315,0.0,4.0,78,0.00,,,0.00,WUHU216HW,2013-06-01 17:55:00,
2013-06-01 10:00:00,50.3,43.7,29.81,NW,315,2.0,4.0,78,0.00,,,0.00,WUHU216HW,2013-06-01 18:00:00,
2013-06-01 10:05:00,50.5,43.9,29.80,WNW,293,0.0,2.0,78,0.00,,,0.00,WUHU216HW,2013-06-01 18:05:00,
2013-06-01 10:10:00,50.7,43.9,29.81,WNW,293,0.0,2.0,78,0.00,,,0.00,WUHU216HW,2013-06-01 18:10:00,
2013-06-01 10:15:00,50.9,43.9,29.80,WNW,293,0.0,0.8,77,0.00,,,0.00,WUHU216HW,2013-06-01 18:15:00,
2013-06-01 10:20:00,51.0,44.1,29.81,WNW,293,0.0,0.8,77,0.00,,,0.00,WUHU216HW,2013-06-01 18:20:00,
2013-06-01 10:25:00,51.0,44.1,29.81,WNW,293,2.0,2.0,77,0.00,,,0.00,WUHU216HW,2013-06-01 18:25:00,
2013-06-01 10:30:00,52.1,44.8,29.81,WNW,293,0.0,2.0,76,0.00,,,0.00,WUHU216HW,2013-06-01 18:30:00,
2013-06-01 10:35:00,52.7,45.3,29.81,NW,315,2.9,2.9,76,0.00,,,0.00,WUHU216HW,2013-06-01 18:35:00,
2013-06-01 10:40:00,52.8,45.1,29.81,WNW,293,0.2,2.9,75,0.00,,,0.00,WUHU216HW,2013-06-01 18:40:00,
2013-06-01 10:45:00,52.8,44.8,29.81,SW,225,0.0,2.9,74,0.00,,,0.00,WUHU216HW,2013-06-01 18:45:00,
2013-06-01 10:50:00,52.7,44.6,29.80,West,270,0.0,1.5,74,0.00,,,0.00,WUHU216HW,2013-06-01 18:50:00,
2013-06-01 10:55:00,52.8,44.8,29.80,North,0,3.1,3.1,74,0.00,,,0.00,WUHU216HW,2013-06-01 18:55:00,
2013-06-01 11:00:00,53.2,45.1,29.80,North,0,0.0,3.1,74,0.00,,,0.00,WUHU216HW,2013-06-01 19:00:00,
2013-06-01 11:05:00,53.4,45.3,29.80,North,0,0.0,3.1,74,0.00,,,0.00,WUHU216HW,2013-06-01 19:05:00,
2013-06-01 11:10:00,53.7,45.3,29.80,North,0,0.0,2.4,73,0.00,,,0.00,WUHU216HW,2013-06-01 19:10:00,
2013-06-01 11:15:00,53.7,44.9,29.80,NNW,338,1.3,2.4,72,0.00,,,0.00,WUHU216HW,2013-06-01 19:15:00,
2013-06-01 11:20:00,54.1,45.3,29.80,NNW,338,0.0,1.3,72,0.00,,,0.00,WUHU216HW,2013-06-01 19:20:00,
2013-06-01 11:25:00,54.3,45.4,29.80,North,0,1.3,2.2,72,0.00,,,0.00,WUHU216HW,2013-06-01 19:25:00,
2013-06-01 11:30:00,54.3,45.1,29.80,North,0,0.0,2.2,71,0.00,,,0.00,WUHU216HW,2013-06-01 19:30:00,
2013-06-01 11:35:00,54.1,44.9,29.80,North,0,0.0,1.5,71,0.00,,,0.00,WUHU216HW,2013-06-01 19:35:00,
2013-06-01 11:40:00,53.9,44.7,29.81,North,0,0.6,0.6,71,0.00,,,0.00,WUHU216HW,2013-06-01 19:40:00,
2013-06-01 11:46:00,53.7,44.5,29.81,North,0,0.0,0.6,71,0.00,,,0.00,WUHU216HW,2013-06-01 19:46:00,
2013-06-01 11:51:00,53.4,44.2,29.81,North,0,0.0,0.6,71,0.00,,,0.00,WUHU216HW,2013-06-01 19:51:00,
2013-06-01 11:56:00,53.4,44.2,29.80,NNW,338,0.0,0.0,71,0.00,,,0.00,WUHU216HW,2013-06-01 19:56:00,
2013-06-01 12:01:00,53.4,44.2,29.80,WNW,293,0.0,0.0,71,0.00,,,0.00,WUHU216HW,2013-06-01 20:01:00,
2013-06-01 12:06:00,53.4,44.2,29.80,WNW,293,0.0,0.0,71,0.00,,,0.00,WUHU216HW,2013-06-01 20:06:00,
2013-06-01 12:11:00,53.4,44.2,29.80,WNW,293,0.0,0.0,71,0.00,,,0.00,WUHU216HW,2013-06-01 20:11:00,
2013-06-01 12:16:00,53.4,44.2,29.80,WNW,293,0.0,0.0,71,0.00,,,0.00,WUHU216HW,2013-06-01 20:16:00,
2013-06-01 12:21:00,53.4,44.2,29.80,WNW,293,0.0,0.0,71,0.00,,,0.00,WUHU216HW,2013-06-01 20:21:00,
2013-06-01 12:26:00,53.7,44.5,29.80,WNW,293,0.0,0.0,71,0.00,,,0.00,WUHU216HW,2013-06-01 20:26:00,
2013-06-01 12:31:00,53.7,44.5,29.80,NNW,338,0.0,0.0,71,0.00,,,0.00,WUHU216HW,2013-06-01 20:31:00,
2013-06-01 12:36:00,53.6,44.4,29.80,NNW,338,0.0,0.0,71,0.00,,,0.00,WUHU216HW,2013-06-01 20:36:00,
2013-06-01 12:41:00,53.4,43.8,29.80,NNW,338,0.0,0.0,70,0.00,,,0.00,WUHU216HW,2013-06-01 20:41:00,
2013-06-01 12:46:00,53.4,44.2,29.80,NNW,338,0.0,0.0,71,0.00,,,0.00,WUHU216HW,2013-06-01 20:46:00,
2013-06-01 12:51:00,53.7,44.2,29.80,NNW,338,0.0,0.0,70,0.00,,,0.00,WUHU216HW,2013-06-01 20:51:00,
2013-06-01 12:56:00,53.9,44.7,29.80,NNW,338,0.0,0.0,71,0.00,,,0.00,WUHU216HW,2013-06-01 20:56:00,
2013-06-01 13:01:00,54.3,44.7,29.80,NW,315,2.2,2.2,70,0.00,,,0.00,WUHU216HW,2013-06-01 21:01:00,
2013-06-01 13:06:00,55.0,45.0,29.80,WNW,293,0.0,3.8,69,0.00,,,0.00,WUHU216HW,2013-06-01 21:06:00,
2013-06-01 13:11:00,55.0,45.0,29.80,WNW,293,1.1,3.8,69,0.00,,,0.00,WUHU216HW,2013-06-01 21:11:00,
2013-06-01 13:16:00,55.2,45.2,29.80,WNW,293,0.0,1.1,69,0.00,,,0.00,WUHU216HW,2013-06-01 21:16:00,
2013-06-01 13:21:00,55.9,45.5,29.80,NW,315,0.0,2.0,68,0.00,,,0.00,WUHU216HW,2013-06-01 21:21:00,
2013-06-01 13:26:00,56.8,45.9,29.80,NNW,338,0.0,2.0,67,0.00,,,0.00,WUHU216HW,2013-06-01 21:26:00,
2013-06-01 13:31:00,57.7,46.8,29.80,NNW,338,0.0,1.3,67,0.00,,,0.00,WUHU216HW,2013-06-01 21:31:00,
2013-06-01 13:36:00,58.8,47.0,29.80,WNW,293,5.1,5.1,65,0.00,,,0.00,WUHU216HW,2013-06-01 21:36:00,
2013-06-01 13:41:00,58.8,46.6,29.80,WNW,293,0.0,5.1,64,0.00,,,0.00,WUHU216HW,2013-06-01 21:41:00,
2013-06-01 13:46:00,58.6,46.0,29.80,WNW,293,3.5,5.1,63,0.00,,,0.00,WUHU216HW,2013-06-01 21:46:00,
2013-06-01 13:51:00,58.4,46.2,29.80,West,270,2.6,3.5,64,0.00,,,0.00,WUHU216HW,2013-06-01 21:51:00,
2013-06-01 13:56:00,58.6,46.4,29.80,WNW,293,2.4,6.0,64,0.00,,,0.00,WUHU216HW,2013-06-01 21:56:00,
2013-06-01 14:01:00,58.8,46.2,29.80,North,0,0.0,6.0,63,0.00,,,0.00,WUHU216HW,2013-06-01 22:01:00,
2013-06-01 14:06:00,59.9,46.8,29.80,North,0,0.0,4.9,62,0.00,,,0.00,WUHU216HW,2013-06-01 22:06:00,
2013-06-01 14:11:00,59.9,46.4,29.80,NW,315,4.2,4.9,61,0.00,,,0.00,WUHU216HW,2013-06-01 22:11:00,
2013-06-01 14:16:00,59.7,46.2,29.80,WNW,293,2.0,4.2,61,0.00,,,0.00,WUHU216HW,2013-06-01 22:16:00,
2013-06-01 14:21:00,59.5,46.0,29.80,WNW,293,3.1,4.2,61,0.00,,,0.00,WUHU216HW,2013-06-01 22:21:00,
2013-06-01 14:26:00,59.0,45.5,29.80,SW,225,0.0,3.1,61,0.00,,,0.00,WUHU216HW,2013-06-01 22:26:00,
2013-06-01 14:31:00,58.6,45.2,29.80,WNW,293,1.3,4.9,61,0.00,,,0.00,WUHU216HW,2013-06-01 22:31:00,
2013-06-01 14:36:00,57.9,44.9,29.80,WNW,293,0.0,4.9,62,0.00,,,0.00,WUHU216HW,2013-06-01 22:36:00,
2013-06-01 14:41:00,58.1,45.1,29.80,NW,315,2.4,2.4,62,0.00,,,0.00,WUHU216HW,2013-06-01 22:41:00,
2013-06-01 14:46:00,58.4,45.4,29.80,West,270,0.0,2.6,62,0.00,,,0.00,WUHU216HW,2013-06-01 22:46:00,
2013-06-01 14:51:00,58.8,45.7,29.80,WNW,293,0.6,6.0,62,0.00,,,0.00,WUHU216HW,2013-06-01 22:51:00,
2013-06-01 14:56:00,58.8,45.3,29.80,North,0,2.6,6.0,61,0.00,,,0.00,WUHU216HW,2013-06-01 22:56:00,
2013-06-01 15:01:00,58.8,45.3,29.80,North,0,0.0,3.8,61,0.00,,,0.00,WUHU216HW,2013-06-01 23:01:00,
2013-06-01 15:06:00,58.8,45.3,29.80,North,0,2.0,3.8,61,0.00,,,0.00,WUHU216HW,2013-06-01 23:06:00,
2013-06-01 15:11:00,58.8,45.3,29.80,North,0,3.1,3.1,61,0.00,,,0.00,WUHU216HW,2013-06-01 23:11:00,
2013-06-01 15:16:00,58.8,45.3,29.80,North,0,0.0,3.1,61,0.00,,,0.00,WUHU216HW,2013-06-01 23:16:00,
2013-06-01 15:21:00,59.5,46.0,29.80,NNE,23,2.2,2.2,61,0.00,,,0.00,WUHU216HW,2013-06-01 23:21:00,
2013-06-01 15:26:00,59.5,45.6,29.79,WSW,248,0.0,2.2,60,0.00,,,0.00,WUHU216HW,2013-06-01 23:26:00,
2013-06-01 15:31:00,59.5,45.6,29.79,WNW,293,2.2,2.2,60,0.00,,,0.00,WUHU216HW,2013-06-01 23:31:00,
2013-06-01 15:36:00,59.7,45.8,29.79,WNW,293,3.3,3.3,60,0.00,,,0.00,WUHU216HW,2013-06-01 23:36:00,
2013-06-01 15:41:00,59.9,46.0,29.79,WNW,293,0.0,3.3,60,0.00,,,0.00,WUHU216HW,2013-06-01 23:41:00,
2013-06-01 15:46:00,60.0,46.2,29.79,West,270,2.0,3.3,60,0.00,,,0.00,WUHU216HW,2013-06-01 23:46:00,
2013-06-01 15:51:00,59.9,46.0,29.79,SSW,203,1.1,2.0,60,0.00,,,0.00,WUHU216HW,2013-06-01 23:51:00,
2013-06-01 15:56:00,59.9,45.5,29.79,SSE,158,2.2,2.2,59,0.00,,,0.00,WUHU216HW,2013-06-01 23:56:00,
2013-06-01 16:01:00,59.7,45.3,29.78,NE,45,0.0,2.2,59,0.00,,,0.00,WUHU216HW,2013-06-02 00:01:00,
2013-06-01 16:06:00,59.7,45.3,29.78,NNE,23,4.2,4.2,59,0.00,,,0.00,WUHU216HW,2013-06-02 00:06:00,
2013-06-01 16:11:00,60.4,46.0,29.78,SSW,203,2.4,4.2,59,0.00,,,0.00,WUHU216HW,2013-06-02 00:11:00,
2013-06-01 16:16:00,60.6,46.2,29.78,SW,225,0.0,4.2,59,0.00,,,0.00,WUHU216HW,2013-06-02 00:16:00,
2013-06-01 16:21:00,60.6,45.7,29.78,NW,315,0.0,4.2,58,0.00,,,0.00,WUHU216HW,2013-06-02 00:21:00,
2013-06-01 16:26:00,60.6,45.7,29.78,NNW,338,1.5,4.2,58,0.00,,,0.00,WUHU216HW,2013-06-02 00:26:00,
2013-06-01 16:31:00,60.6,45.7,29.78,North,0,0.0,1.7,58,0.00,,,0.00,WUHU216HW,2013-06-02 00:31:00,
2013-06-01 16:36:00,60.6,45.7,29.78,NNW,338,1.1,1.1,58,0.00,,,0.00,WUHU216HW,2013-06-02 00:36:00,
2013-06-01 16:41:00,60.6,45.7,29.78,NW,315,1.5,2.4,58,0.00,,,0.00,WUHU216HW,2013-06-02 00:41:00,
2013-06-01 16:46:00,61.1,46.2,29.78,NW,315,0.0,2.4,58,0.00,,,0.00,WUHU216HW,2013-06-02 00:46:00,
2013-06-01 16:51:00,60.9,45.6,29.78,SSE,158,1.7,1.7,57,0.00,,,0.00,WUHU216HW,2013-06-02 00:51:00,
2013-06-01 16:56:00,60.9,46.1,29.78,ENE,68,0.0,1.7,58,0.00,,,0.00,WUHU216HW,2013-06-02 00:56:00,
2013-06-01 17:01:00,61.1,45.8,29.78,SW,225,0.6,1.7,57,0.00,,,0.00,WUHU216HW,2013-06-02 01:01:00,
2013-06-01 17:06:00,60.9,45.6,29.78,SSW,203,0.0,0.6,57,0.00,,,0.00,WUHU216HW,2013-06-02 01:06:00,
2013-06-01 17:11:00,60.6,45.3,29.78,WNW,293,0.0,0.4,57,0.00,,,0.00,WUHU216HW,2013-06-02 01:11:00,
2013-06-01 17:16:00,60.4,45.1,29.78,NW,315,0.0,2.9,57,0.00,,,0.00,WUHU216HW,2013-06-02 01:16:00,
2013-06-01 17:21:00,59.9,45.0,29.78,WNW,293,0.0,2.9,58,0.00,,,0.00,WUHU216HW,2013-06-02 01:21:00,
2013-06-01 17:26:00,59.5,44.7,29.78,WNW,293,0.0,0.6,58,0.00,,,0.00,WUHU216HW,2013-06-02 01:26:00,
2013-06-01 17:31:00,59.0,44.2,29.78,WNW,293,1.5,1.5,58,0.00,,,0.00,WUHU216HW,2013-06-02 01:31:00,
2013-06-01 17:36:00,58.6,44.3,29.78,West,270,0.8,1.5,59,0.00,,,0.00,WUHU216HW,2013-06-02 01:36:00,
2013-06-01 17:41:00,58.2,44.0,29.79,WNW,293,0.0,1.1,59,0.00,,,0.00,WUHU216HW,2013-06-02 01:41:00,
2013-06-01 17:46:00,57.9,43.8,29.79,WNW,293,0.0,0.8,60,0.00,,,0.00,WUHU216HW,2013-06-02 01:46:00,
2013-06-01 17:51:00,57.3,44.0,29.79,West,270,2.6,2.6,61,0.00,,,0.00,WUHU216HW,2013-06-02 01:51:00,
2013-06-01 17:56:00,57.3,44.0,29.79,WNW,293,0.8,2.6,61,0.00,,,0.00,WUHU216HW,2013-06-02 01:56:00,
2013-06-01 18:01:00,57.0,43.7,29.79,WNW,293,4.0,4.0,61,0.00,,,0.00,WUHU216HW,2013-06-02 02:01:00,
2013-06-01 18:06:00,57.0,44.1,29.79,NW,315,6.7,6.7,62,0.00,,,0.00,WUHU216HW,2013-06-02 02:06:00,
2013-06-01 18:11:00,57.0,44.1,29.79,SW,225,3.8,6.7,62,0.00,,,0.00,WUHU216HW,2013-06-02 02:11:00,
2013-06-01 18:16:00,57.0,44.1,29.79,SSW,203,2.9,6.7,62,0.00,,,0.00,WUHU216HW,2013-06-02 02:16:00,
2013-06-01 18:21:00,56.8,43.9,29.79,WNW,293,2.2,4.0,62,0.00,,,0.00,WUHU216HW,2013-06-02 02:21:00,
2013-06-01 18:26:00,56.4,43.1,29.79,SW,225,0.6,4.4,61,0.00,,,0.00,WUHU216HW,2013-06-02 02:26:00,
2013-06-01 18:31:00,56.3,43.4,29.79,West,270,3.3,4.4,62,0.00,,,0.00,WUHU216HW,2013-06-02 02:31:00,
2013-06-01 18:36:00,56.1,42.8,29.79,West,270,2.6,3.3,61,0.00,,,0.00,WUHU216HW,2013-06-02 02:36:00,
2013-06-01 18:41:00,55.9,42.6,29.79,WSW,248,1.7,3.3,61,0.00,,,0.00,WUHU216HW,2013-06-02 02:41:00,
2013-06-01 18:46:00,55.4,42.2,29.79,SW,225,2.6,2.6,61,0.00,,,0.00,WUHU216HW,2013-06-02 02:46:00,
2013-06-01 18:51:00,55.2,42.3,29.79,SW,225,2.4,4.4,62,0.00,,,0.00,WUHU216HW,2013-06-02 02:51:00,
2013-06-01 18:56:00,55.0,42.2,29.80,SW,225,0.0,4.4,62,0.00,,,0.00,WUHU216HW,2013-06-02 02:56:00,
2013-06-01 19:01:00,54.6,42.0,29.80,WSW,248,2.0,2.6,62,0.00,,,0.00,WUHU216HW,2013-06-02 03:01:00,
2013-06-01 19:06:00,54.6,42.2,29.80,WNW,293,1.3,2.6,63,0.00,,,0.00,WUHU216HW,2013-06-02 03:06:00,
2013-06-01 19:11:00,54.6,42.2,29.79,West,270,2.2,2.2,63,0.00,,,0.00,WUHU216HW,2013-06-02 03:11:00,
2013-06-01 19:16:00,54.5,41.9,29.80,West,270,1.7,3.5,63,0.00,,,0.00,WUHU216HW,2013-06-02 03:16:00,
2013-06-01 19:21:00,54.3,42.3,29.80,West,270,6.4,6.4,64,0.00,,,0.00,WUHU216HW,2013-06-02 03:21:00,
2013-06-01 19:26:00,53.7,41.8,29.80,West,270,7.8,7.8,64,0.00,,,0.00,WUHU216HW,2013-06-02 03:26:00,
2013-06-01 19:31:00,53.4,41.5,29.80,WNW,293,3.8,7.8,64,0.00,,,0.00,WUHU216HW,2013-06-02 03:31:00,
2013-06-01 19:36:00,53.2,41.7,29.80,WNW,293,1.1,3.8,65,0.00,,,0.00,WUHU216HW,2013-06-02 03:36:00,
2013-06-01 19:41:00,53.0,41.5,29.80,WNW,293,1.1,3.1,65,0.00,,,0.00,WUHU216HW,2013-06-02 03:41:00,
2013-06-01 19:46:00,52.8,41.7,29.80,West,270,3.1,3.3,66,0.00,,,0.00,WUHU216HW,2013-06-02 03:46:00,
2013-06-01 19:51:00,52.8,41.7,29.80,West,270,2.2,3.3,66,0.00,,,0.00,WUHU216HW,2013-06-02 03:51:00,
2013-06-01 19:56:00,52.8,41.7,29.80,WSW,248,0.0,3.3,66,0.00,,,0.00,WUHU216HW,2013-06-02 03:56:00,
2013-06-01 20:01:00,52.8,42.1,29.80,West,270,0.0,3.1,67,0.00,,,0.00,WUHU216HW,2013-06-02 04:01:00,
2013-06-01 20:06:00,53.0,42.3,29.80,West,270,0.0,1.7,67,0.00,,,0.00,WUHU216HW,2013-06-02 04:06:00,
2013-06-01 20:11:00,53.2,42.5,29.80,NW,315,7.6,7.6,67,0.00,,,0.00,WUHU216HW,2013-06-02 04:11:00,
2013-06-01 20:16:00,53.2,42.5,29.80,WSW,248,2.2,7.6,67,0.00,,,0.00,WUHU216HW,2013-06-02 04:16:00,
2013-06-01 20:22:00,53.2,42.5,29.80,West,270,0.0,7.6,67,0.00,,,0.00,WUHU216HW,2013-06-02 04:22:00,
2013-06-01 20:26:00,53.0,42.3,29.80,WSW,248,0.0,2.6,67,0.00,,,0.00,WUHU216HW,2013-06-02 04:26:00,
2013-06-01 20:31:00,52.8,42.1,29.80,West,270,0.0,2.6,67,0.00,,,0.00,WUHU216HW,2013-06-02 04:31:00,
2013-06-01 20:36:00,52.7,42.0,29.80,SW,225,0.0,2.0,67,0.00,,,0.00,WUHU216HW,2013-06-02 04:36:00,
2013-06-01 20:41:00,52.5,41.8,29.80,West,270,3.5,3.5,67,0.00,,,0.00,WUHU216HW,2013-06-02 04:41:00,
2013-06-01 20:46:00,52.7,42.0,29.80,NW,315,3.1,3.5,67,0.00,,,0.00,WUHU216HW,2013-06-02 04:46:00,
2013-06-01 20:52:00,52.5,41.8,29.80,South,180,4.9,4.9,67,0.00,,,0.00,WUHU216HW,2013-06-02 04:52:00,
2013-06-01 20:57:00,51.8,41.6,29.80,SW,225,3.3,4.9,68,0.00,,,0.00,WUHU216HW,2013-06-02 04:57:00,
2013-06-01 21:02:00,51.6,41.4,29.81,SSW,203,0.0,4.4,68,0.00,,,0.00,WUHU216HW,2013-06-02 05:02:00,
2013-06-01 21:07:00,51.4,41.6,29.80,WSW,248,0.0,3.3,69,0.00,,,0.00,WUHU216HW,2013-06-02 05:07:00,
2013-06-01 21:12:00,51.0,41.3,29.80,SSW,203,0.0,1.7,69,0.00,,,0.00,WUHU216HW,2013-06-02 05:12:00,
2013-06-01 21:17:00,50.9,41.1,29.80,SW,225,0.0,2.2,69,0.00,,,0.00,WUHU216HW,2013-06-02 05:17:00,
2013-06-01 21:22:00,50.7,41.0,29.81,SW,225,0.0,2.2,69,0.00,,,0.00,WUHU216HW,2013-06-02 05:22:00,
2013-06-01 21:27:00,50.5,41.5,29.81,WSW,248,0.0,0.0,71,0.00,,,0.00,WUHU216HW,2013-06-02 05:27:00,
2013-06-01 21:32:00,50.5,41.5,29.81,West,270,0.0,0.0,71,0.00,,,0.00,WUHU216HW,2013-06-02 05:32:00,
2013-06-01 21:37:00,50.1,41.1,29.81,WSW,248,2.0,2.0,71,0.00,,,0.00,WUHU216HW,2013-06-02 05:37:00,
2013-06-01 21:42:00,50.0,41.3,29.81,WSW,248,0.0,2.0,72,0.00,,,0.00,WUHU216HW,2013-06-02 05:42:00,
2013-06-01 21:47:00,49.8,41.1,29.81,WSW,248,0.0,1.5,72,0.00,,,0.00,WUHU216HW,2013-06-02 05:47:00,
2013-06-01 21:52:00,49.6,41.3,29.81,West,270,0.0,0.0,73,0.00,,,0.00,WUHU216HW,2013-06-02 05:52:00,
2013-06-01 21:57:00,49.6,41.3,29.81,WNW,293,0.0,0.0,73,0.00,,,0.00,WUHU216HW,2013-06-02 05:57:00,
2013-06-01 22:02:00,49.2,41.2,29.81,WNW,293,0.0,0.6,74,0.00,,,0.00,WUHU216HW,2013-06-02 06:02:00,
2013-06-01 22:07:00,49.1,41.1,29.82,WNW,293,0.0,0.6,74,0.00,,,0.00,WUHU216HW,2013-06-02 06:07:00,
2013-06-01 22:12:00,48.9,41.2,29.82,WNW,293,0.0,0.0,75,0.00,,,0.00,WUHU216HW,2013-06-02 06:12:00,
2013-06-01 22:17:00,48.7,41.0,29.82,WNW,293,0.0,0.0,75,0.00,,,0.00,WUHU216HW,2013-06-02 06:17:00,
2013-06-01 22:22:00,48.5,40.9,29.82,WNW,293,0.0,0.0,75,0.00,,,0.00,WUHU216HW,2013-06-02 06:22:00,
2013-06-01 22:27:00,48.3,41.0,29.82,WNW,293,0.0,0.0,76,0.00,,,0.00,WUHU216HW,2013-06-02 06:27:00,
2013-06-01 22:32:00,48.0,40.7,29.82,WSW,248,1.7,1.7,76,0.00,,,0.00,WUHU216HW,2013-06-02 06:32:00,
2013-06-01 22:37:00,48.0,41.0,29.82,WSW,248,0.6,1.7,77,0.00,,,0.00,WUHU216HW,2013-06-02 06:37:00,
2013-06-01 22:42:00,47.8,40.9,29.82,WSW,248,0.0,0.6,77,0.00,,,0.00,WUHU216HW,2013-06-02 06:42:00,
2013-06-01 22:47:00,47.6,41.0,29.82,SW,225,4.4,4.4,78,0.00,,,0.00,WUHU216HW,2013-06-02 06:47:00,
2013-06-01 22:52:00,47.4,40.9,29.82,WSW,248,0.8,4.4,78,0.00,,,0.00,WUHU216HW,2013-06-02 06:52:00,
2013-06-01 22:57:00,47.3,41.1,29.82,SW,225,0.0,0.8,79,0.00,,,0.00,WUHU216HW,2013-06-02 06:57:00,
2013-06-01 23:02:00,47.1,40.9,29.83,WSW,248,2.2,2.2,79,0.00,,,0.00,WUHU216HW,2013-06-02 07:02:00,
2013-06-01 23:07:00,46.9,41.1,29.83,WSW,248,0.0,2.2,80,0.00,,,0.00,WUHU216HW,2013-06-02 07:07:00,
2013-06-01 23:12:00,46.9,41.1,29.83,WSW,248,0.0,0.0,80,0.00,,,0.00,WUHU216HW,2013-06-02 07:12:00,
2013-06-01 23:17:00,46.7,40.9,29.83,WSW,248,0.0,0.0,80,0.00,,,0.00,WUHU216HW,2013-06-02 07:17:00,
2013-06-01 23:22:00,46.7,40.9,29.83,WSW,248,0.0,0.0,80,0.00,,,0.00,WUHU216HW,2013-06-02 07:22:00,
2013-06-01 23:27:00,46.7,40.9,29.83,WSW,248,0.0,1.5,80,0.02,,,0.02,WUHU216HW,2013-06-02 07:27:00,
2013-06-01 23:32:00,46.5,40.8,29.83,WSW,248,0.0,1.5,80,0.02,,,0.02,WUHU216HW,2013-06-02 07:32:00,
2013-06-01 23:37:00,46.5,40.8,29.84,WSW,248,0.4,0.4,80,0.02,,,0.02,WUHU216HW,2013-06-02 07:37:00,
2013-06-01 23:42:00,46.5,40.8,29.83,WSW,248,0.0,0.4,80,0.02,,,0.02,WUHU216HW,2013-06-02 07:42:00,
2013-06-01 23:47:00,46.4,40.6,29.84,SW,225,0.0,0.0,80,0.02,,,0.02,WUHU216HW,2013-06-02 07:47:00,
2013-06-01 23:52:00,46.2,40.7,29.83,SW,225,0.0,0.0,81,0.02,,,0.02,WUHU216HW,2013-06-02 07:52:00,
2013-06-01 23:57:00,46.2,40.7,29.83,SW,225,0.0,0.0,81,0.02,,,0.02,WUHU216HW,2013-06-02 07:57:00,